Time;durP1;ratioP1;P1;durP2;ratioP2;P2;SDS_P1;SDS_P2;PMS_P1;PMS_P2;Temp;Humidity;BMP_temperature;BMP_pressure;BME280_temperature;BME280_humidity;BME280_pressure;Samples;Min_cycle;Max_cycle;Signal;HPM_P1;HPM_P2
2023/03/10 00:00:46;;;;;;;8.18;6.28;;;;;;;;;;5240024;28;20100;-69
2023/03/10 00:03:18;;;;;;;6.03;5.43;;;;;;;;;;5241339;28;20018;-69
2023/03/10 00:05:49;;;;;;;7.15;5.95;;;;;;;;;;5240667;28;20025;-69
2023/03/10 00:08:20;;;;;;;5.95;5.38;;;;;;;;;;5240019;28;20100;-70
2023/03/10 00:10:51;;;;;;;5.75;5.15;;;;;;;;;;5240844;28;20116;-69
2023/03/10 00:13:22;;;;;;;6.05;5.45;;;;;;;;;;5239679;28;20037;-69
2023/03/10 00:15:53;;;;;;;7.20;6.50;;;;;;;;;;5240786;28;20013;-69
2023/03/10 00:18:25;;;;;;;7.43;6.00;;;;;;;;;;5240279;28;20029;-69
2023/03/10 00:20:57;;;;;;;6.88;6.18;;;;;;;;;;5240011;28;20083;-69
2023/03/10 00:23:29;;;;;;;7.20;5.95;;;;;;;;;;5240070;28;20100;-69
2023/03/10 00:26:00;;;;;;;6.40;5.80;;;;;;;;;;5240840;28;20097;-69
2023/03/10 00:28:31;;;;;;;6.45;5.85;;;;;;;;;;5239195;28;20025;-70
2023/03/10 00:31:04;;;;;;;7.28;6.53;;;;;;;;;;5240780;28;20507;-69
2023/03/10 00:33:35;;;;;;;6.57;5.88;;;;;;;;;;5239893;28;20036;-69
2023/03/10 00:36:08;;;;;;;5.72;5.13;;;;;;;;;;5240162;28;20025;-69
2023/03/10 00:38:40;;;;;;;7.88;6.35;;;;;;;;;;5240124;28;20044;-69
2023/03/10 00:41:12;;;;;;;6.28;5.70;;;;;;;;;;5239849;28;20456;-69
2023/03/10 00:43:44;;;;;;;6.65;5.85;;;;;;;;;;5239891;28;20953;-69
2023/03/10 00:46:15;;;;;;;7.05;6.40;;;;;;;;;;5240403;28;20017;-69
2023/03/10 00:48:46;;;;;;;6.05;5.45;;;;;;;;;;5239403;28;20143;-69
2023/03/10 00:51:19;;;;;;;6.47;5.88;;;;;;;;;;5240438;28;20068;-69
2023/03/10 00:53:50;;;;;;;6.35;5.75;;;;;;;;;;5239997;28;20030;-69
2023/03/10 00:56:23;;;;;;;6.70;5.90;;;;;;;;;;5239388;28;20021;-70
2023/03/10 00:58:55;;;;;;;5.68;5.18;;;;;;;;;;5240102;28;20025;-69
2023/03/10 01:01:31;;;;;;;5.82;5.25;;;;;;;;;;5239912;28;20005;-70
2023/03/10 01:04:04;;;;;;;7.18;5.70;;;;;;;;;;5239692;28;20072;-69
2023/03/10 01:06:35;;;;;;;5.85;4.82;;;;;;;;;;5239663;28;20022;-69
2023/03/10 01:09:06;;;;;;;4.97;4.45;;;;;;;;;;5240197;28;20364;-69
2023/03/10 01:11:38;;;;;;;3.92;3.50;;;;;;;;;;5238864;28;20048;-69
2023/03/10 01:14:11;;;;;;;4.18;3.75;;;;;;;;;;5240332;28;20491;-70
2023/03/10 01:16:42;;;;;;;3.90;2.85;;;;;;;;;;5238936;28;20614;-69
2023/03/10 01:19:13;;;;;;;4.68;2.88;;;;;;;;;;5240388;28;20156;-69
2023/03/10 01:21:45;;;;;;;4.35;2.95;;;;;;;;;;5239446;28;20041;-69
2023/03/10 01:24:16;;;;;;;4.65;2.50;;;;;;;;;;5239665;28;20465;-70
2023/03/10 01:26:47;;;;;;;3.05;2.35;;;;;;;;;;5239851;28;20135;-70
2023/03/10 01:29:19;;;;;;;3.05;2.10;;;;;;;;;;5240212;28;20029;-70
2023/03/10 01:31:50;;;;;;;2.67;1.92;;;;;;;;;;5238776;28;20048;-70
2023/03/10 01:34:21;;;;;;;4.35;2.05;;;;;;;;;;5239267;28;20472;-70
2023/03/10 01:36:52;;;;;;;3.22;2.33;;;;;;;;;;5240078;28;20049;-70
2023/03/10 01:39:24;;;;;;;3.28;2.22;;;;;;;;;;5239053;28;20028;-69
2023/03/10 01:41:55;;;;;;;5.28;2.00;;;;;;;;;;5240040;28;20029;-69
2023/03/10 01:44:27;;;;;;;2.53;2.17;;;;;;;;;;5238626;28;20079;-70
2023/03/10 01:46:58;;;;;;;2.45;2.13;;;;;;;;;;5240016;28;20013;-70
2023/03/10 01:49:38;;;;;;;2.50;2.08;;;;;;;;;;5239511;28;20025;-68
2023/03/10 01:52:20;;;;;;;2.53;2.33;;;;;;;;;;5239100;28;20053;-69
2023/03/10 01:54:58;;;;;;;4.55;2.35;;;;;;;;;;5239623;28;20498;-71
2023/03/10 01:57:31;;;;;;;4.63;3.03;;;;;;;;;;5242290;28;20037;-70
2023/03/10 02:00:06;;;;;;;4.88;2.88;;;;;;;;;;5242800;28;20183;-70
2023/03/10 02:02:48;;;;;;;3.88;2.97;;;;;;;;;;5242988;28;20028;-70
2023/03/10 02:05:20;;;;;;;4.40;3.70;;;;;;;;;;5243262;28;20064;-70
2023/03/10 02:07:51;;;;;;;3.78;3.40;;;;;;;;;;5242342;28;20131;-69
2023/03/10 02:10:22;;;;;;;4.35;3.63;;;;;;;;;;5243025;28;20021;-69
2023/03/10 02:12:53;;;;;;;4.95;3.58;;;;;;;;;;5242118;28;20376;-70
2023/03/10 02:15:25;;;;;;;4.93;4.07;;;;;;;;;;5242720;28;20025;-71
2023/03/10 02:17:56;;;;;;;4.05;3.30;;;;;;;;;;5243101;28;20057;-70
2023/03/10 02:20:40;;;;;;;5.97;4.10;;;;;;;;;;5241887;28;20424;-70
2023/03/10 02:23:14;;;;;;;5.82;3.15;;;;;;;;;;5243107;28;20096;-69
2023/03/10 02:25:48;;;;;;;4.32;3.33;;;;;;;;;;5242505;28;20487;-70
2023/03/10 02:28:19;;;;;;;4.45;3.13;;;;;;;;;;5241805;28;20228;-70
2023/03/10 02:30:51;;;;;;;3.55;3.20;;;;;;;;;;5242960;28;20446;-71
2023/03/10 02:33:24;;;;;;;4.85;4.05;;;;;;;;;;5242432;28;20025;-71
2023/03/10 02:36:12;;;;;;;4.95;3.10;;;;;;;;;;5241811;28;20037;-70
2023/03/10 02:38:43;;;;;;;4.25;2.90;;;;;;;;;;5242248;28;20024;-69
2023/03/10 02:41:17;;;;;;;3.88;3.20;;;;;;;;;;5242327;28;20427;-70
2023/03/10 02:43:49;;;;;;;3.17;2.20;;;;;;;;;;5242321;28;20474;-70
2023/03/10 02:46:21;;;;;;;6.10;3.00;;;;;;;;;;5242370;28;20010;-70
2023/03/10 02:48:52;;;;;;;3.55;2.72;;;;;;;;;;5241574;28;20036;-70
2023/03/10 02:51:25;;;;;;;3.38;2.22;;;;;;;;;;5242038;28;20045;-70
2023/03/10 02:53:56;;;;;;;4.07;2.42;;;;;;;;;;5242569;28;20503;-68
2023/03/10 02:56:27;;;;;;;6.15;2.80;;;;;;;;;;5241286;28;20018;-70
2023/03/10 02:58:59;;;;;;;4.03;2.72;;;;;;;;;;5242209;28;20104;-70
2023/03/10 03:01:30;;;;;;;4.75;2.60;;;;;;;;;;5241804;28;20079;-69
2023/03/10 03:04:02;;;;;;;3.78;2.28;;;;;;;;;;5241685;28;20068;-69
2023/03/10 03:06:33;;;;;;;3.75;2.30;;;;;;;;;;5241871;28;20093;-70
2023/03/10 03:09:04;;;;;;;5.97;2.92;;;;;;;;;;5240437;28;20025;-69
2023/03/10 03:11:35;;;;;;;5.20;2.80;;;;;;;;;;5241365;28;20101;-69
2023/03/10 03:14:07;;;;;;;4.55;2.47;;;;;;;;;;5241932;28;20029;-69
2023/03/10 03:16:38;;;;;;;4.88;2.42;;;;;;;;;;5240921;28;21050;-69
2023/03/10 03:19:09;;;;;;;4.13;2.42;;;;;;;;;;5242077;28;20048;-70
2023/03/10 03:21:40;;;;;;;4.13;2.50;;;;;;;;;;5241238;28;20033;-70
2023/03/10 03:24:11;;;;;;;3.13;2.08;;;;;;;;;;5240955;28;20025;-69
2023/03/10 03:26:43;;;;;;;2.80;2.20;;;;;;;;;;5241348;28;20460;-70
2023/03/10 03:29:14;;;;;;;3.85;1.50;;;;;;;;;;5241821;28;20083;-70
2023/03/10 03:31:45;;;;;;;4.43;1.90;;;;;;;;;;5240377;28;20063;-70
2023/03/10 03:34:19;;;;;;;5.15;1.40;;;;;;;;;;5241598;28;20534;-69
2023/03/10 03:36:51;;;;;;;3.90;1.45;;;;;;;;;;5241416;28;20067;-70
2023/03/10 03:39:22;;;;;;;3.20;1.50;;;;;;;;;;5240983;28;20017;-70
2023/03/10 03:41:56;;;;;;;4.13;1.40;;;;;;;;;;5241535;28;20099;-69
2023/03/10 03:44:27;;;;;;;4.13;1.20;;;;;;;;;;5240400;28;20093;-70
2023/03/10 03:46:58;;;;;;;3.17;0.90;;;;;;;;;;5241489;28;20116;-70
2023/03/10 03:49:29;;;;;;;6.13;1.52;;;;;;;;;;5240665;28;20036;-69
2023/03/10 03:52:00;;;;;;;3.63;1.20;;;;;;;;;;5240468;28;20514;-69
2023/03/10 03:54:32;;;;;;;3.20;1.00;;;;;;;;;;5240515;28;20563;-70
2023/03/10 03:57:03;;;;;;;4.50;1.20;;;;;;;;;;5241181;28;20472;-70
2023/03/10 03:59:34;;;;;;;3.88;0.80;;;;;;;;;;5240120;28;20025;-70
2023/03/10 04:02:05;;;;;;;3.38;0.90;;;;;;;;;;5241084;28;20032;-70
2023/03/10 04:04:36;;;;;;;3.53;1.08;;;;;;;;;;5240944;28;20025;-69
2023/03/10 04:07:08;;;;;;;3.17;1.00;;;;;;;;;;5240400;28;20101;-70
2023/03/10 04:09:39;;;;;;;4.30;0.80;;;;;;;;;;5240525;28;20030;-69
2023/03/10 04:12:10;;;;;;;5.82;1.08;;;;;;;;;;5240355;28;20097;-69
2023/03/10 04:14:42;;;;;;;5.18;1.10;;;;;;;;;;5240247;28;20029;-70
2023/03/10 04:17:13;;;;;;;3.83;0.82;;;;;;;;;;5240694;28;20020;-70
2023/03/10 04:19:44;;;;;;;5.53;1.00;;;;;;;;;;5239180;28;20525;-69
2023/03/10 04:22:15;;;;;;;5.82;0.70;;;;;;;;;;5240889;28;20017;-70
2023/03/10 04:24:46;;;;;;;2.95;0.50;;;;;;;;;;5240189;28;20032;-70
2023/03/10 04:27:17;;;;;;;3.76;0.72;;;;;;;;;;5240194;28;20104;-71
2023/03/10 04:29:49;;;;;;;5.57;0.80;;;;;;;;;;5240144;28;20033;-70
2023/03/10 04:32:20;;;;;;;6.07;0.70;;;;;;;;;;5240426;28;20527;-69
2023/03/10 04:34:51;;;;;;;6.88;0.80;;;;;;;;;;5239499;28;20037;-68
2023/03/10 04:37:22;;;;;;;4.75;0.70;;;;;;;;;;5240128;28;20025;-69
2023/03/10 04:39:54;;;;;;;4.13;0.60;;;;;;;;;;5240641;28;20052;-70
2023/03/10 04:42:26;;;;;;;4.88;0.85;;;;;;;;;;5239227;28;20101;-70
2023/03/10 04:44:58;;;;;;;2.83;0.63;;;;;;;;;;5240925;28;20495;-70
2023/03/10 04:47:29;;;;;;;3.70;0.40;;;;;;;;;;5239301;28;20034;-69
2023/03/10 04:50:00;;;;;;;8.88;1.35;;;;;;;;;;5240574;28;20021;-69
2023/03/10 04:52:31;;;;;;;3.22;0.50;;;;;;;;;;5239794;28;20485;-70
2023/03/10 04:55:03;;;;;;;4.35;0.70;;;;;;;;;;5239739;28;20099;-70
2023/03/10 04:57:34;;;;;;;6.60;0.80;;;;;;;;;;5239906;28;20013;-70
2023/03/10 05:00:07;;;;;;;3.75;0.50;;;;;;;;;;5240555;28;20060;-70
2023/03/10 05:02:38;;;;;;;5.60;0.80;;;;;;;;;;5239054;28;20024;-70
2023/03/10 05:05:10;;;;;;;4.65;0.60;;;;;;;;;;5240308;28;20465;-70
2023/03/10 05:07:41;;;;;;;6.38;0.88;;;;;;;;;;5239878;28;20462;-70
2023/03/10 05:10:12;;;;;;;7.63;0.60;;;;;;;;;;5239326;28;20082;-70
2023/03/10 05:12:45;;;;;;;5.82;1.30;;;;;;;;;;5239405;28;20025;-70
2023/03/10 05:15:16;;;;;;;7.82;1.77;;;;;;;;;;5239861;28;20469;-70
2023/03/10 05:17:47;;;;;;;6.18;0.85;;;;;;;;;;5238765;28;20033;-70
2023/03/10 05:20:19;;;;;;;4.30;0.70;;;;;;;;;;5239991;28;20029;-70
2023/03/10 05:22:50;;;;;;;6.00;0.98;;;;;;;;;;5239001;28;20017;-70
2023/03/10 05:25:21;;;;;;;6.85;0.60;;;;;;;;;;5239565;28;20028;-70
2023/03/10 05:27:53;;;;;;;7.42;1.32;;;;;;;;;;5239872;28;20091;-70
2023/03/10 05:30:24;;;;;;;4.32;0.55;;;;;;;;;;5239006;28;20037;-71
2023/03/10 05:32:55;;;;;;;4.40;0.85;;;;;;;;;;5243793;28;20038;-70
2023/03/10 05:35:26;;;;;;;7.28;1.48;;;;;;;;;;5243451;28;20033;-71
2023/03/10 05:37:57;;;;;;;8.93;0.70;;;;;;;;;;5242929;28;20033;-70
2023/03/10 05:40:28;;;;;;;6.28;0.80;;;;;;;;;;5243385;28;20057;-71
2023/03/10 05:43:00;;;;;;;6.80;0.60;;;;;;;;;;5244009;28;20036;-70
2023/03/10 05:45:31;;;;;;;8.10;0.93;;;;;;;;;;5242333;28;20380;-71
2023/03/10 05:48:03;;;;;;;7.25;0.77;;;;;;;;;;5243880;28;20437;-71
2023/03/10 05:50:34;;;;;;;5.95;0.73;;;;;;;;;;5242113;28;20048;-71
2023/03/10 05:53:05;;;;;;;7.20;1.00;;;;;;;;;;5243583;28;20426;-70
2023/03/10 05:55:36;;;;;;;4.57;0.80;;;;;;;;;;5242989;28;20096;-69
2023/03/10 05:58:07;;;;;;;6.55;1.08;;;;;;;;;;5242910;28;20028;-70
2023/03/10 06:00:38;;;;;;;4.72;0.70;;;;;;;;;;5242994;28;20029;-70
2023/03/10 06:03:10;;;;;;;8.20;0.90;;;;;;;;;;5243265;28;20025;-70
2023/03/10 06:05:41;;;;;;;6.15;0.85;;;;;;;;;;5241769;28;20543;-70
2023/03/10 06:08:12;;;;;;;4.72;0.80;;;;;;;;;;5243249;28;20465;-70
2023/03/10 06:10:43;;;;;;;5.60;0.88;;;;;;;;;;5242640;28;20115;-69
2023/03/10 06:13:18;;;;;;;7.10;0.60;;;;;;;;;;5242150;28;20089;-70
2023/03/10 06:15:51;;;;;;;6.10;0.90;;;;;;;;;;5242616;28;20031;-69
2023/03/10 06:18:22;;;;;;;6.85;0.90;;;;;;;;;;5242781;28;20461;-69
2023/03/10 06:20:54;;;;;;;5.85;0.73;;;;;;;;;;5241840;28;20128;-70
2023/03/10 06:23:25;;;;;;;5.32;0.80;;;;;;;;;;5242221;28;20093;-70
2023/03/10 06:25:57;;;;;;;8.60;1.77;;;;;;;;;;5242037;28;20321;-70
2023/03/10 06:28:32;;;;;;;6.88;0.80;;;;;;;;;;5242458;28;20018;-70
2023/03/10 06:31:05;;;;;;;8.02;0.90;;;;;;;;;;5242523;28;20025;-69
2023/03/10 06:33:37;;;;;;;4.32;0.85;;;;;;;;;;5241344;28;20380;-69
2023/03/10 06:36:09;;;;;;;6.82;0.93;;;;;;;;;;5242577;28;20013;-69
2023/03/10 06:38:40;;;;;;;4.82;0.70;;;;;;;;;;5242066;28;20025;-71
2023/03/10 06:41:11;;;;;;;5.53;0.60;;;;;;;;;;5241731;28;20448;-69
2023/03/10 06:43:43;;;;;;;6.20;0.77;;;;;;;;;;5241824;28;20464;-69
2023/03/10 06:46:14;;;;;;;3.97;0.70;;;;;;;;;;5242383;28;20018;-70
2023/03/10 06:48:45;;;;;;;4.80;0.60;;;;;;;;;;5241077;28;20528;-70
2023/03/10 06:51:18;;;;;;;2.38;0.50;;;;;;;;;;5241832;28;20053;-70
2023/03/10 06:53:49;;;;;;;4.60;0.90;;;;;;;;;;5241012;28;20108;-70
2023/03/10 06:56:21;;;;;;;4.78;0.70;;;;;;;;;;5242147;28;20052;-69
2023/03/10 06:58:52;;;;;;;3.33;0.70;;;;;;;;;;5242024;28;20026;-69
2023/03/10 07:01:25;;;;;;;4.22;0.80;;;;;;;;;;5241195;28;20026;-70
2023/03/10 07:03:56;;;;;;;2.78;0.68;;;;;;;;;;5242399;28;20380;-70
2023/03/10 07:06:28;;;;;;;4.07;0.65;;;;;;;;;;5241620;28;20013;-70
2023/03/10 07:08:59;;;;;;;4.13;0.75;;;;;;;;;;5241488;28;20045;-71
2023/03/10 07:11:31;;;;;;;5.18;0.77;;;;;;;;;;5241245;28;20010;-70
2023/03/10 07:14:02;;;;;;;4.97;0.60;;;;;;;;;;5242117;28;20035;-70
2023/03/10 07:16:33;;;;;;;7.65;1.10;;;;;;;;;;5240884;28;20029;-71
2023/03/10 07:19:05;;;;;;;9.40;1.58;;;;;;;;;;5241827;28;20079;-70
2023/03/10 07:21:36;;;;;;;8.35;0.98;;;;;;;;;;5241258;28;20029;-72
2023/03/10 07:24:07;;;;;;;6.82;1.50;;;;;;;;;;5240815;28;20025;-71
2023/03/10 07:26:38;;;;;;;8.45;1.10;;;;;;;;;;5241339;28;20049;-72
2023/03/10 07:29:09;;;;;;;4.43;0.88;;;;;;;;;;5240964;28;20071;-72
2023/03/10 07:31:42;;;;;;;9.32;0.90;;;;;;;;;;5241011;28;20024;-70
2023/03/10 07:34:14;;;;;;;6.07;0.82;;;;;;;;;;5241392;28;20056;-70
2023/03/10 07:36:45;;;;;;;7.43;0.70;;;;;;;;;;5240093;28;20053;-71
2023/03/10 07:39:16;;;;;;;5.57;0.82;;;;;;;;;;5241615;28;20029;-70
2023/03/10 07:41:47;;;;;;;5.00;0.80;;;;;;;;;;5240684;28;20187;-70
2023/03/10 07:44:19;;;;;;;5.13;0.75;;;;;;;;;;5240757;28;20022;-70
2023/03/10 07:46:50;;;;;;;7.20;0.90;;;;;;;;;;5240680;28;20043;-69
2023/03/10 07:49:21;;;;;;;7.88;0.77;;;;;;;;;;5240931;28;20017;-71
2023/03/10 07:51:52;;;;;;;4.13;0.85;;;;;;;;;;5239914;28;20096;-73
2023/03/10 07:54:24;;;;;;;3.67;0.50;;;;;;;;;;5239993;28;20563;-72
2023/03/10 07:56:55;;;;;;;4.97;0.57;;;;;;;;;;5239991;28;20013;-72
2023/03/10 07:59:26;;;;;;;4.97;0.40;;;;;;;;;;5237400;28;20028;-72
2023/03/10 08:01:57;;;;;;;4.30;0.50;;;;;;;;;;5241075;28;20272;-72
2023/03/10 08:04:28;;;;;;;7.03;0.70;;;;;;;;;;5239861;28;20826;-72
2023/03/10 08:07:01;;;;;;;4.15;0.60;;;;;;;;;;5240972;28;20407;-71
2023/03/10 08:09:32;;;;;;;4.78;0.50;;;;;;;;;;5239915;28;20025;-72
2023/03/10 08:12:04;;;;;;;3.75;0.50;;;;;;;;;;5239946;28;20018;-72
2023/03/10 08:14:35;;;;;;;7.05;0.60;;;;;;;;;;5240240;28;20031;-73
2023/03/10 08:17:06;;;;;;;7.68;1.20;;;;;;;;;;5240949;28;20017;-73
2023/03/10 08:19:38;;;;;;;4.72;0.50;;;;;;;;;;5239517;28;20030;-73
2023/03/10 08:22:09;;;;;;;5.20;0.50;;;;;;;;;;5240797;28;20039;-73
2023/03/10 08:24:40;;;;;;;4.15;0.40;;;;;;;;;;5240099;28;20451;-73
2023/03/10 08:27:11;;;;;;;7.05;0.60;;;;;;;;;;5239679;28;20055;-72
2023/03/10 08:29:42;;;;;;;4.55;0.45;;;;;;;;;;5240165;28;20476;-72
2023/03/10 08:32:13;;;;;;;7.40;0.70;;;;;;;;;;5240761;28;20025;-72
2023/03/10 08:34:45;;;;;;;6.13;0.57;;;;;;;;;;5239174;28;20167;-72
2023/03/10 08:37:16;;;;;;;4.05;0.60;;;;;;;;;;5240631;28;20017;-72
2023/03/10 08:39:48;;;;;;;4.07;0.60;;;;;;;;;;5239414;28;20036;-72
2023/03/10 08:42:20;;;;;;;4.68;0.60;;;;;;;;;;5240160;28;20028;-72
2023/03/10 08:44:53;;;;;;;5.55;0.60;;;;;;;;;;5240221;28;20078;-73
2023/03/10 08:47:24;;;;;;;4.15;0.50;;;;;;;;;;5239009;28;20373;-73
2023/03/10 08:49:55;;;;;;;5.88;0.68;;;;;;;;;;5240285;28;20024;-73
2023/03/10 08:52:26;;;;;;;5.22;0.73;;;;;;;;;;5239675;28;20064;-73
2023/03/10 08:54:58;;;;;;;7.10;0.60;;;;;;;;;;5239460;28;20036;-73
2023/03/10 08:57:29;;;;;;;4.32;0.70;;;;;;;;;;5239620;28;20021;-73
2023/03/10 09:00:00;;;;;;;6.18;0.93;;;;;;;;;;5240457;28;20485;-73
2023/03/10 09:02:32;;;;;;;5.30;0.60;;;;;;;;;;5238971;28;20009;-73
2023/03/10 09:05:04;;;;;;;4.90;0.80;;;;;;;;;;5241330;28;20010;-72
2023/03/10 09:07:35;;;;;;;7.85;0.60;;;;;;;;;;5243163;28;20021;-74
2023/03/10 09:10:06;;;;;;;7.50;0.93;;;;;;;;;;5244520;28;20049;-73
2023/03/10 09:12:37;;;;;;;4.47;0.82;;;;;;;;;;5243474;28;20384;-72
2023/03/10 09:15:08;;;;;;;6.32;0.50;;;;;;;;;;5243560;28;20041;-74
2023/03/10 09:17:40;;;;;;;6.47;0.98;;;;;;;;;;5243879;28;20480;-72
2023/03/10 09:20:11;;;;;;;4.97;0.77;;;;;;;;;;5244415;28;20029;-72
2023/03/10 09:22:43;;;;;;;7.03;0.70;;;;;;;;;;5242715;28;20101;-72
2023/03/10 09:25:14;;;;;;;6.78;0.93;;;;;;;;;;5244495;28;20104;-73
2023/03/10 09:27:45;;;;;;;4.93;1.00;;;;;;;;;;5243804;28;20021;-72
2023/03/10 09:30:16;;;;;;;4.07;0.77;;;;;;;;;;5243266;28;20268;-73
2023/03/10 09:32:48;;;;;;;4.85;0.65;;;;;;;;;;5243404;28;20020;-72
2023/03/10 09:35:19;;;;;;;4.45;0.50;;;;;;;;;;5243663;28;20556;-73
2023/03/10 09:37:50;;;;;;;6.60;1.08;;;;;;;;;;5243000;28;20025;-72
2023/03/10 09:40:22;;;;;;;6.70;0.80;;;;;;;;;;5243691;28;20523;-72
2023/03/10 09:42:58;;;;;;;5.30;0.50;;;;;;;;;;5242710;28;20362;-73
2023/03/10 09:45:30;;;;;;;5.07;0.60;;;;;;;;;;5243252;28;20033;-72
2023/03/10 09:48:16;;;;;;;5.28;0.60;;;;;;;;;;5243607;28;20036;-73
2023/03/10 09:50:51;;;;;;;5.20;0.57;;;;;;;;;;5242391;28;20064;-73
2023/03/10 09:53:25;;;;;;;4.28;0.50;;;;;;;;;;5243360;28;20480;-72
2023/03/10 09:55:56;;;;;;;4.60;0.85;;;;;;;;;;5243496;28;20109;-73
2023/03/10 09:58:29;;;;;;;3.30;0.50;;;;;;;;;;5241938;28;20104;-73
2023/03/10 10:01:01;;;;;;;5.68;0.70;;;;;;;;;;5243683;28;20017;-73
2023/03/10 10:03:41;;;;;;;5.15;0.50;;;;;;;;;;5242829;28;20022;-73
2023/03/10 10:06:15;;;;;;;3.85;0.50;;;;;;;;;;5242985;28;20014;-73
2023/03/10 10:08:52;;;;;;;5.68;0.60;;;;;;;;;;5242648;28;20028;-73
2023/03/10 10:11:24;;;;;;;5.45;0.52;;;;;;;;;;5242376;28;20040;-73
2023/03/10 10:14:14;;;;;;;5.88;0.50;;;;;;;;;;5243350;28;20033;-73
2023/03/10 10:16:47;;;;;;;7.95;0.95;;;;;;;;;;5241979;28;20032;-72
2023/03/10 10:19:19;;;;;;;7.40;0.70;;;;;;;;;;5242345;28;20021;-72
2023/03/10 10:21:53;;;;;;;5.10;1.17;;;;;;;;;;5242851;28;20018;-72
2023/03/10 10:24:25;;;;;;;3.92;0.70;;;;;;;;;;5242668;28;20034;-73
2023/03/10 10:26:56;;;;;;;6.28;0.75;;;;;;;;;;5242316;28;20048;-73
2023/03/10 10:29:31;;;;;;;4.85;0.50;;;;;;;;;;5242209;28;20318;-73
2023/03/10 10:32:12;;;;;;;7.10;0.82;;;;;;;;;;5242280;28;20056;-73
2023/03/10 10:34:44;;;;;;;4.60;0.55;;;;;;;;;;5242476;28;20966;-72
2023/03/10 10:37:29;;;;;;;5.97;0.80;;;;;;;;;;5242827;28;20093;-72
2023/03/10 10:40:01;;;;;;;5.35;0.98;;;;;;;;;;5242005;28;20423;-72
2023/03/10 10:42:33;;;;;;;4.57;0.70;;;;;;;;;;5242252;28;20014;-72
2023/03/10 10:45:05;;;;;;;4.72;0.70;;;;;;;;;;5242841;28;20420;-71
2023/03/10 10:47:50;;;;;;;5.75;0.68;;;;;;;;;;5241307;28;20017;-71
2023/03/10 10:50:22;;;;;;;6.05;0.70;;;;;;;;;;5242226;28;20018;-72
2023/03/10 10:53:12;;;;;;;5.18;0.60;;;;;;;;;;5242119;28;20392;-72
2023/03/10 10:55:43;;;;;;;5.40;0.60;;;;;;;;;;5241809;28;20766;-73
2023/03/10 10:58:24;;;;;;;4.20;0.73;;;;;;;;;;5242416;28;20020;-72
2023/03/10 11:00:57;;;;;;;7.07;0.90;;;;;;;;;;5241485;28;20030;-72
2023/03/10 11:03:30;;;;;;;5.70;0.93;;;;;;;;;;5242067;28;20037;-72
2023/03/10 11:06:36;;;;;;;6.07;1.13;;;;;;;;;;5242393;28;20013;-71
2023/03/10 11:09:08;;;;;;;3.20;0.65;;;;;;;;;;5241307;28;20036;-71
2023/03/10 11:11:52;;;;;;;3.58;0.70;;;;;;;;;;5241419;28;20037;-71
2023/03/10 11:14:28;;;;;;;5.03;0.63;;;;;;;;;;5240993;28;20064;-72
2023/03/10 11:17:01;;;;;;;4.35;0.70;;;;;;;;;;5241994;28;20373;-72
2023/03/10 11:19:48;;;;;;;2.97;0.40;;;;;;;;;;5241361;28;20052;-72
2023/03/10 11:22:31;;;;;;;3.20;0.50;;;;;;;;;;5240948;28;20029;-72
2023/03/10 11:25:18;;;;;;;3.67;0.60;;;;;;;;;;5241922;28;20029;-72
2023/03/10 11:27:52;;;;;;;4.25;0.60;;;;;;;;;;5241037;28;20021;-72
2023/03/10 11:30:29;;;;;;;4.10;0.60;;;;;;;;;;5240163;28;20112;-72
2023/03/10 11:33:07;;;;;;;2.53;0.50;;;;;;;;;;5241674;28;20060;-72
2023/03/10 11:35:44;;;;;;;1.98;0.40;;;;;;;;;;5240238;28;20037;-72
2023/03/10 11:38:21;;;;;;;3.83;0.52;;;;;;;;;;5241476;28;20047;-72
2023/03/10 11:40:57;;;;;;;4.57;0.50;;;;;;;;;;5241072;28;20021;-72
2023/03/10 11:43:28;;;;;;;1.92;0.40;;;;;;;;;;5239906;28;20017;-72
2023/03/10 11:46:02;;;;;;;2.30;0.50;;;;;;;;;;5241451;28;20041;-73
2023/03/10 11:48:40;;;;;;;2.58;0.40;;;;;;;;;;5240631;28;20144;-72
2023/03/10 11:51:21;;;;;;;2.20;0.65;;;;;;;;;;5300035;27;20922;-71
2023/03/10 11:53:54;;;;;;;1.38;0.40;;;;;;;;;;5300067;28;20039;-71
2023/03/10 11:56:26;;;;;;;1.70;0.60;;;;;;;;;;5298925;28;20018;-71
2023/03/10 11:59:07;;;;;;;0.98;0.30;;;;;;;;;;5300229;28;20016;-71
2023/03/10 12:01:44;;;;;;;1.23;0.57;;;;;;;;;;5299888;28;20486;-71
2023/03/10 12:04:34;;;;;;;1.45;0.40;;;;;;;;;;5299362;28;20017;-70
2023/03/10 12:07:06;;;;;;;1.15;0.30;;;;;;;;;;5300090;28;20043;-71
2023/03/10 12:09:41;;;;;;;1.08;0.30;;;;;;;;;;5299424;28;20402;-71
2023/03/10 12:12:13;;;;;;;1.20;0.30;;;;;;;;;;5299549;28;20028;-71
2023/03/10 12:14:45;;;;;;;2.42;0.30;;;;;;;;;;5299551;28;20103;-72
2023/03/10 12:17:17;;;;;;;1.25;0.40;;;;;;;;;;5300075;28;20425;-72
2023/03/10 12:20:04;;;;;;;1.55;0.20;;;;;;;;;;5298460;28;20024;-71
2023/03/10 12:22:39;;;;;;;1.10;0.30;;;;;;;;;;5299467;28;20032;-71
2023/03/10 12:25:28;;;;;;;1.77;0.45;;;;;;;;;;5298656;28;20012;-71
2023/03/10 12:28:14;;;;;;;0.82;0.30;;;;;;;;;;5299373;28;20032;-71
2023/03/10 12:30:50;;;;;;;0.73;0.30;;;;;;;;;;5299459;28;20028;-70
2023/03/10 12:33:30;;;;;;;0.85;0.30;;;;;;;;;;5298781;28;20028;-72
2023/03/10 12:36:20;;;;;;;0.68;0.30;;;;;;;;;;5299484;28;20115;-70
2023/03/10 12:38:53;;;;;;;0.43;0.20;;;;;;;;;;5298628;28;20028;-71
2023/03/10 12:41:27;;;;;;;1.05;0.30;;;;;;;;;;5299099;28;20020;-71
2023/03/10 12:43:58;;;;;;;0.40;0.20;;;;;;;;;;5299739;28;20025;-70
2023/03/10 12:46:39;;;;;;;0.80;0.30;;;;;;;;;;5298286;28;20073;-71
2023/03/10 12:49:16;;;;;;;0.60;0.25;;;;;;;;;;5299072;28;20302;-71
2023/03/10 12:51:52;;;;;;;0.85;0.30;;;;;;;;;;5299244;28;20024;-71
2023/03/10 12:54:30;;;;;;;0.77;0.28;;;;;;;;;;5298219;28;20065;-70
2023/03/10 12:57:10;;;;;;;0.80;0.30;;;;;;;;;;5299348;28;20024;-71
2023/03/10 13:00:11;;;;;;;0.95;0.30;;;;;;;;;;5297790;28;20458;-70
2023/03/10 13:02:47;;;;;;;0.93;0.40;;;;;;;;;;5265255;28;20029;-70
2023/03/10 13:05:21;;;;;;;0.73;0.40;;;;;;;;;;5285006;28;20052;-72
2023/03/10 13:07:55;;;;;;;0.70;0.43;;;;;;;;;;5283839;28;20352;-71
2023/03/10 13:10:29;;;;;;;0.90;0.75;;;;;;;;;;5284193;28;20547;-71
2023/03/10 13:13:04;;;;;;;1.20;0.77;;;;;;;;;;5284883;28;20047;-70
2023/03/10 13:15:35;;;;;;;1.42;0.80;;;;;;;;;;5283426;28;20078;-70
2023/03/10 13:18:16;;;;;;;1.65;1.00;;;;;;;;;;5284417;28;20025;-70
2023/03/10 13:20:48;;;;;;;1.60;0.90;;;;;;;;;;5283432;28;20380;-70
2023/03/10 13:23:19;;;;;;;1.70;1.27;;;;;;;;;;5284509;28;20070;-70
2023/03/10 13:25:51;;;;;;;1.15;0.90;;;;;;;;;;5284012;28;20032;-70
2023/03/10 13:28:23;;;;;;;1.30;0.70;;;;;;;;;;5283224;28;20017;-71
2023/03/10 13:31:13;;;;;;;0.88;0.50;;;;;;;;;;5283718;28;20040;-71
2023/03/10 13:33:45;;;;;;;0.47;0.30;;;;;;;;;;5283895;28;20037;-71
2023/03/10 13:36:31;;;;;;;0.50;0.25;;;;;;;;;;5283463;28;20021;-71
2023/03/10 13:39:11;;;;;;;0.50;0.30;;;;;;;;;;5282840;28;20043;-71
2023/03/10 13:41:44;;;;;;;0.40;0.20;;;;;;;;;;5283891;28;20024;-70
2023/03/10 13:44:20;;;;;;;0.70;0.40;;;;;;;;;;5283963;28;20029;-70
2023/03/10 13:46:53;;;;;;;0.90;0.32;;;;;;;;;;5283927;28;20136;-70
2023/03/10 13:49:26;;;;;;;1.27;0.30;;;;;;;;;;5282410;28;20036;-70
2023/03/10 13:51:59;;;;;;;0.70;0.28;;;;;;;;;;5284341;28;20047;-72
2023/03/10 13:54:33;;;;;;;0.88;0.30;;;;;;;;;;5283616;28;20044;-71
2023/03/10 13:57:24;;;;;;;0.30;0.20;;;;;;;;;;5283160;28;20031;-71
2023/03/10 13:59:56;;;;;;;0.40;0.20;;;;;;;;;;5283644;28;20016;-71
2023/03/10 14:02:30;;;;;;;0.52;0.30;;;;;;;;;;5283171;28;20481;-71
2023/03/10 14:05:05;;;;;;;1.48;0.20;;;;;;;;;;5283074;28;20024;-71
2023/03/10 14:07:37;;;;;;;0.50;0.17;;;;;;;;;;5283046;28;20009;-71
2023/03/10 14:10:09;;;;;;;0.20;0.10;;;;;;;;;;5282995;28;20028;-72
2023/03/10 14:12:42;;;;;;;0.30;0.10;;;;;;;;;;5282154;28;20116;-72
2023/03/10 14:15:13;;;;;;;0.55;0.10;;;;;;;;;;5283698;28;20013;-71
2023/03/10 14:17:48;;;;;;;0.20;0.10;;;;;;;;;;5282402;28;20028;-71
2023/03/10 14:20:29;;;;;;;1.65;0.10;;;;;;;;;;5283365;28;20357;-71
2023/03/10 14:23:22;;;;;;;0.32;0.20;;;;;;;;;;5283255;28;20020;-72
2023/03/10 14:25:55;;;;;;;0.55;0.10;;;;;;;;;;5282216;28;20090;-71
2023/03/10 14:28:27;;;;;;;0.32;0.20;;;;;;;;;;5282869;28;20024;-70
2023/03/10 14:30:59;;;;;;;0.20;0.10;;;;;;;;;;5282766;28;20116;-71
2023/03/10 14:33:30;;;;;;;0.20;0.10;;;;;;;;;;5282100;28;20103;-71
2023/03/10 14:36:01;;;;;;;0.25;0.10;;;;;;;;;;5283296;28;20044;-70
2023/03/10 14:38:33;;;;;;;0.40;0.20;;;;;;;;;;5281767;28;20013;-70
2023/03/10 14:41:04;;;;;;;0.52;0.10;;;;;;;;;;5283027;28;20029;-71
2023/03/10 14:43:35;;;;;;;0.50;0.20;;;;;;;;;;5282423;28;20052;-71
2023/03/10 14:46:08;;;;;;;3.65;2.38;;;;;;;;;;5282480;28;20094;-71
2023/03/10 14:48:40;;;;;;;0.77;0.32;;;;;;;;;;5282301;28;20078;-70
2023/03/10 14:51:13;;;;;;;0.80;0.40;;;;;;;;;;5282926;28;20044;-72
2023/03/10 14:53:45;;;;;;;0.80;0.40;;;;;;;;;;5281642;28;20171;-72
2023/03/10 14:56:17;;;;;;;1.05;0.40;;;;;;;;;;5282578;28;20020;-71
2023/03/10 14:58:50;;;;;;;0.65;0.30;;;;;;;;;;5282427;28;20044;-72
2023/03/10 15:01:24;;;;;;;1.00;0.50;;;;;;;;;;5281706;28;20019;-71
2023/03/10 15:03:55;;;;;;;1.20;0.60;;;;;;;;;;5282456;28;20064;-72
2023/03/10 15:06:27;;;;;;;1.13;0.50;;;;;;;;;;5281150;28;20060;-72
2023/03/10 15:08:59;;;;;;;1.20;0.60;;;;;;;;;;5282122;28;20467;-72
2023/03/10 15:11:31;;;;;;;0.90;0.40;;;;;;;;;;5278172;28;20098;-71
2023/03/10 15:14:03;;;;;;;1.27;0.60;;;;;;;;;;5281859;28;20403;-72
2023/03/10 15:16:34;;;;;;;1.60;0.70;;;;;;;;;;5281596;28;20098;-72
2023/03/10 15:19:05;;;;;;;2.05;1.00;;;;;;;;;;5281713;28;20016;-73